Time;durP1;ratioP1;P1;durP2;ratioP2;P2;SDS_P1;SDS_P2;PMS_P1;PMS_P2;Temp;Humidity;BMP_temperature;BMP_pressure;BME280_temperature;BME280_humidity;BME280_pressure;Samples;Min_cycle;Max_cycle;Signal;HPM_P1;HPM_P2
2023/05/08 00:00:59;;;;;;;7.55;5.40;;;21.40;1.00;;;;;;4843673;29;20054;-45
2023/05/08 00:03:26;;;;;;;7.75;4.88;;;21.40;1.00;;;;;;4836947;29;20107;-44
2023/05/08 00:05:56;;;;;;;6.53;4.90;;;21.40;1.00;;;;;;4826696;29;20043;-43
2023/05/08 00:08:22;;;;;;;5.45;4.22;;;21.40;1.00;;;;;;4837929;29;20072;-45
2023/05/08 00:10:49;;;;;;;7.07;5.45;;;21.40;1.00;;;;;;4843559;29;20050;-44
2023/05/08 00:13:16;;;;;;;5.60;4.10;;;21.40;1.00;;;;;;4839610;29;20476;-46
2023/05/08 00:15:43;;;;;;;6.75;5.75;;;21.40;1.00;;;;;;4843253;29;20054;-44
2023/05/08 00:18:10;;;;;;;6.25;5.20;;;21.40;1.00;;;;;;4843489;29;20509;-44
2023/05/08 00:20:36;;;;;;;6.10;4.65;;;21.40;1.00;;;;;;4837757;29;20061;-44
2023/05/08 00:23:03;;;;;;;9.15;6.35;;;21.40;1.00;;;;;;4840614;29;20114;-45
2023/05/08 00:25:30;;;;;;;5.85;4.35;;;21.40;1.00;;;;;;4843174;29;20046;-45
2023/05/08 00:27:58;;;;;;;8.20;5.20;;;21.40;1.00;;;;;;4843141;29;20406;-44
2023/05/08 00:30:25;;;;;;;7.78;4.82;;;21.30;1.00;;;;;;4843260;29;20494;-43
2023/05/08 00:32:52;;;;;;;6.35;4.05;;;21.30;1.00;;;;;;4841821;29;20054;-43
2023/05/08 00:35:19;;;;;;;8.55;4.85;;;21.30;1.00;;;;;;4830381;29;20050;-44
2023/05/08 00:37:46;;;;;;;6.32;4.88;;;21.30;1.00;;;;;;4840031;29;20527;-45
2023/05/08 00:40:12;;;;;;;9.25;5.22;;;21.30;1.00;;;;;;4842784;29;20571;-44
2023/05/08 00:42:39;;;;;;;5.65;5.07;;;21.30;1.00;;;;;;4837645;29;20574;-44
2023/05/08 00:45:07;;;;;;;4.68;4.07;;;21.30;1.00;;;;;;4840351;29;20078;-43
2023/05/08 00:47:34;;;;;;;6.28;4.40;;;21.30;1.00;;;;;;4841671;29;20046;-42
2023/05/08 00:50:02;;;;;;;4.57;3.60;;;21.30;1.00;;;;;;4842783;29;20042;-43
2023/05/08 00:52:30;;;;;;;5.22;4.18;;;21.30;1.00;;;;;;4839915;29;20452;-43
2023/05/08 00:54:59;;;;;;;7.05;4.22;;;21.30;1.00;;;;;;4841185;29;20128;-44
2023/05/08 00:57:28;;;;;;;11.00;4.22;;;21.30;1.00;;;;;;4842940;29;20448;-44
2023/05/08 00:59:56;;;;;;;6.75;4.75;;;21.30;1.00;;;;;;4841389;29;20050;-44
2023/05/08 01:02:23;;;;;;;5.90;4.40;;;21.20;1.00;;;;;;4840897;29;20482;-44
2023/05/08 01:04:51;;;;;;;7.47;3.92;;;21.30;1.00;;;;;;4842531;29;20042;-45
2023/05/08 01:07:18;;;;;;;4.22;3.60;;;21.30;1.00;;;;;;4841435;29;20042;-46
2023/05/08 01:09:45;;;;;;;4.80;4.03;;;21.20;1.00;;;;;;4840049;29;20075;-44
2023/05/08 01:12:45;;;;;;;5.97;4.20;;;21.20;1.00;;;;;;4840896;29;20053;-44
2023/05/08 01:15:19;;;;;;;5.55;4.45;;;21.30;1.00;;;;;;4841078;29;20062;-48
2023/05/08 01:18:10;;;;;;;4.40;3.42;;;21.20;1.00;;;;;;4842528;29;20054;-44
2023/05/08 01:21:09;;;;;;;4.30;3.72;;;21.20;1.00;;;;;;4830892;29;20518;-44
2023/05/08 01:24:16;;;;;;;4.22;3.50;;;21.20;1.00;;;;;;4841070;29;20049;-43
2023/05/08 01:27:03;;;;;;;7.03;3.78;;;21.20;1.00;;;;;;4842143;29;20054;-44
2023/05/08 01:30:04;;;;;;;5.85;3.92;;;21.20;1.00;;;;;;4840978;29;20046;-46
2023/05/08 01:32:42;;;;;;;4.90;3.67;;;21.20;1.00;;;;;;4840723;29;20525;-43
2023/05/08 01:35:13;;;;;;;4.63;3.40;;;21.20;1.00;;;;;;4881464;23;20827;-43
2023/05/08 01:38:06;;;;;;;4.28;3.30;;;21.20;1.00;;;;;;4813013;29;20496;-44
2023/05/08 01:40:51;;;;;;;10.10;5.03;;;21.20;1.00;;;;;;4810887;29;20137;-43
2023/05/08 01:43:40;;;;;;;6.22;4.63;;;21.10;1.00;;;;;;4822464;29;20522;-43
2023/05/08 01:46:15;;;;;;;5.05;4.07;;;21.10;1.00;;;;;;4819522;29;20130;-44
2023/05/08 01:49:14;;;;;;;5.03;3.53;;;21.10;1.00;;;;;;4822450;29;20444;-44
2023/05/08 01:51:44;;;;;;;6.00;4.18;;;21.10;1.00;;;;;;4816013;29;20087;-44
2023/05/08 01:54:21;;;;;;;5.53;4.40;;;21.10;1.00;;;;;;4823408;29;20058;-43
2023/05/08 01:56:51;;;;;;;5.43;3.88;;;21.10;1.00;;;;;;4822246;29;20655;-44
2023/05/08 01:59:22;;;;;;;5.93;4.35;;;21.10;1.00;;;;;;4813249;29;20074;-44
2023/05/08 02:01:51;;;;;;;6.05;4.32;;;21.10;1.00;;;;;;4818345;29;20050;-44
2023/05/08 02:04:20;;;;;;;5.90;4.38;;;21.10;1.00;;;;;;4822112;29;20073;-44
2023/05/08 02:06:50;;;;;;;5.25;3.80;;;21.10;1.00;;;;;;4822726;29;20050;-43
2023/05/08 02:09:18;;;;;;;4.93;3.72;;;21.10;1.00;;;;;;4819507;29;20042;-43
2023/05/08 02:11:46;;;;;;;5.68;3.95;;;21.10;1.00;;;;;;4817679;29;20042;-44
2023/05/08 02:14:19;;;;;;;5.18;3.58;;;21.10;1.00;;;;;;4823436;29;20065;-44
2023/05/08 02:16:49;;;;;;;5.88;3.83;;;21.10;1.00;;;;;;4823488;29;20137;-43
2023/05/08 02:19:20;;;;;;;7.95;4.70;;;21.10;1.00;;;;;;4822207;29;20053;-43
2023/05/08 02:21:49;;;;;;;5.35;4.47;;;21.10;1.00;;;;;;4822027;29;20057;-44
2023/05/08 02:24:16;;;;;;;7.03;5.03;;;21.10;1.00;;;;;;4815664;29;20211;-44
2023/05/08 02:26:44;;;;;;;5.97;3.85;;;21.10;1.00;;;;;;4823330;29;20121;-43
2023/05/08 02:29:12;;;;;;;6.45;4.53;;;21.00;1.00;;;;;;4821963;29;20046;-45
2023/05/08 02:31:40;;;;;;;7.25;4.95;;;21.10;1.00;;;;;;4821956;29;20065;-44
2023/05/08 02:34:09;;;;;;;6.18;4.43;;;21.00;1.00;;;;;;4821902;29;20103;-43
2023/05/08 02:36:37;;;;;;;7.68;4.75;;;21.10;1.00;;;;;;4821198;29;20420;-47
2023/05/08 02:39:07;;;;;;;8.25;4.80;;;21.00;1.00;;;;;;4819562;29;20058;-44
2023/05/08 02:41:34;;;;;;;9.27;5.68;;;21.00;1.00;;;;;;4821918;29;20508;-44
2023/05/08 02:44:01;;;;;;;8.45;4.85;;;21.00;1.00;;;;;;4813942;29;20057;-44
2023/05/08 02:46:47;;;;;;;7.55;5.32;;;21.00;1.00;;;;;;4821659;29;20141;-45
2023/05/08 02:49:27;;;;;;;7.38;5.45;;;21.00;1.00;;;;;;4821718;29;20566;-44
2023/05/08 02:52:16;;;;;;;7.40;4.78;;;21.00;1.00;;;;;;4821869;29;20513;-44
2023/05/08 02:55:21;;;;;;;7.68;5.00;;;21.00;1.00;;;;;;4821724;29;20058;-44
2023/05/08 02:58:05;;;;;;;11.45;5.32;;;21.00;1.00;;;;;;4819870;29;20051;-44
2023/05/08 03:00:34;;;;;;;;;;;21.00;1.00;;;;;;4810356;29;20067;-45
2023/05/08 03:03:10;;;;;;;7.15;5.30;;;21.00;1.00;;;;;;4818717;29;19924;-44
2023/05/08 03:05:41;;;;;;;9.23;5.70;;;20.90;1.00;;;;;;4822729;29;20061;-44
2023/05/08 03:08:19;;;;;;;8.23;5.28;;;20.90;1.00;;;;;;4808488;29;20055;-45
2023/05/08 03:10:52;;;;;;;7.47;4.95;;;20.90;1.00;;;;;;4818393;29;20058;-45
2023/05/08 03:13:20;;;;;;;7.00;5.13;;;20.90;1.00;;;;;;4820889;29;20518;-44
2023/05/08 03:15:53;;;;;;;8.27;5.25;;;20.90;1.00;;;;;;4815570;29;20433;-44
2023/05/08 03:18:25;;;;;;;8.02;4.97;;;20.90;1.00;;;;;;4806006;29;20066;-44
2023/05/08 03:20:55;;;;;;;7.38;5.00;;;20.90;1.00;;;;;;4821419;29;20054;-44
2023/05/08 03:23:25;;;;;;;8.70;5.82;;;20.90;1.00;;;;;;4821234;29;20050;-44
2023/05/08 03:25:53;;;;;;;7.35;5.05;;;20.90;1.00;;;;;;4819842;29;20542;-44
2023/05/08 03:28:22;;;;;;;6.30;4.35;;;20.90;1.00;;;;;;4824544;29;20039;-44
2023/05/08 03:30:50;;;;;;;4.80;3.85;;;20.90;1.00;;;;;;4824730;29;20050;-45
2023/05/08 03:33:20;;;;;;;6.20;4.32;;;20.90;1.00;;;;;;4825645;29;20057;-44
2023/05/08 03:35:48;;;;;;;6.40;4.10;;;20.90;1.00;;;;;;4824370;29;20503;-45
2023/05/08 03:38:15;;;;;;;6.97;4.43;;;20.90;1.00;;;;;;4845374;23;20184;-44
2023/05/08 03:40:42;;;;;;;5.00;3.50;;;20.90;1.00;;;;;;4830952;29;20057;-43
2023/05/08 03:43:10;;;;;;;5.68;4.40;;;20.90;1.00;;;;;;4837380;29;20050;-44
2023/05/08 03:45:39;;;;;;;5.97;4.45;;;20.90;1.00;;;;;;4837515;29;20058;-44
2023/05/08 03:48:08;;;;;;;6.35;4.43;;;20.90;1.00;;;;;;4840342;29;20466;-44
2023/05/08 03:50:37;;;;;;;5.63;4.22;;;20.90;1.00;;;;;;4842702;29;20114;-42
2023/05/08 03:53:07;;;;;;;4.63;4.10;;;20.80;1.00;;;;;;4842404;29;20049;-43
2023/05/08 03:55:35;;;;;;;5.53;4.57;;;20.90;1.00;;;;;;4835529;29;20062;-43
2023/05/08 03:58:21;;;;;;;6.25;4.05;;;20.90;1.00;;;;;;4834431;29;20054;-44
2023/05/08 04:01:12;;;;;;;4.80;3.33;;;20.90;1.00;;;;;;4837635;29;20141;-44
2023/05/08 04:04:09;;;;;;;4.78;3.88;;;20.90;1.00;;;;;;4841992;29;20444;-44
2023/05/08 04:06:57;;;;;;;5.28;4.15;;;20.80;1.00;;;;;;4829483;29;20411;-44
2023/05/08 04:09:54;;;;;;;5.38;3.25;;;20.80;1.00;;;;;;4910740;24;20065;-44
2023/05/08 04:12:43;;;;;;;10.68;7.53;;;20.80;1.00;;;;;;4817959;29;20078;-43
2023/05/08 04:15:21;;;;;;;11.88;9.02;;;20.80;1.00;;;;;;4819294;29;20584;-43
2023/05/08 04:17:54;;;;;;;10.57;8.80;;;20.80;1.00;;;;;;4821979;29;20077;-43
2023/05/08 04:20:26;;;;;;;11.60;8.55;;;20.80;1.00;;;;;;4823430;29;20149;-45
2023/05/08 04:22:54;;;;;;;12.07;8.57;;;20.70;1.00;;;;;;4823417;29;20158;-45
2023/05/08 04:25:22;;;;;;;11.52;7.07;;;20.70;1.00;;;;;;4823242;29;20042;-43
2023/05/08 04:27:50;;;;;;;12.20;7.32;;;20.70;1.00;;;;;;4818956;29;20047;-44
2023/05/08 04:30:18;;;;;;;9.43;7.63;;;20.70;1.00;;;;;;4824819;29;20046;-43
2023/05/08 04:32:46;;;;;;;8.90;6.13;;;20.70;1.00;;;;;;4823476;29;20111;-43
2023/05/08 04:35:14;;;;;;;7.22;6.00;;;20.70;1.00;;;;;;4823282;29;20054;-43
2023/05/08 04:37:43;;;;;;;7.28;5.30;;;20.70;1.00;;;;;;4822492;29;20052;-44
2023/05/08 04:40:10;;;;;;;6.63;5.43;;;20.70;1.00;;;;;;4808064;29;20054;-45
2023/05/08 04:42:42;;;;;;;7.95;5.28;;;20.70;1.00;;;;;;4815455;29;20050;-44
2023/05/08 04:45:10;;;;;;;7.80;5.07;;;20.70;1.00;;;;;;4805480;29;20055;-44
2023/05/08 04:47:38;;;;;;;5.90;5.03;;;20.70;1.00;;;;;;4820519;29;20070;-46
2023/05/08 04:50:05;;;;;;;5.38;4.55;;;20.70;1.00;;;;;;4823265;29;20050;-44
2023/05/08 04:52:33;;;;;;;5.60;4.38;;;20.70;1.00;;;;;;4823212;29;20045;-44
2023/05/08 04:55:00;;;;;;;6.80;4.85;;;20.70;1.00;;;;;;4822980;29;20097;-44
2023/05/08 04:57:29;;;;;;;7.53;4.55;;;20.70;1.00;;;;;;4816680;29;20042;-45
2023/05/08 04:59:56;;;;;;;5.25;4.15;;;20.70;1.00;;;;;;4823221;29;20079;-46
2023/05/08 05:02:25;;;;;;;6.78;4.07;;;20.70;1.00;;;;;;4823127;29;20046;-45
2023/05/08 05:04:52;;;;;;;5.40;4.70;;;20.60;1.00;;;;;;4822608;29;20058;-44
2023/05/08 05:07:18;;;;;;;6.82;3.90;;;20.70;1.00;;;;;;4822685;29;20047;-45
2023/05/08 05:09:46;;;;;;;9.20;5.25;;;20.70;1.00;;;;;;4867135;23;20054;-44
2023/05/08 05:12:13;;;;;;;4.60;3.70;;;20.70;1.00;;;;;;4837702;29;20494;-45
2023/05/08 05:14:40;;;;;;;5.15;3.13;;;20.70;1.00;;;;;;4833629;29;20077;-44
2023/05/08 05:17:07;;;;;;;5.95;4.10;;;20.70;1.00;;;;;;4841806;29;20038;-44
2023/05/08 05:19:33;;;;;;;6.13;3.58;;;20.70;1.00;;;;;;4835653;29;20050;-44
2023/05/08 05:22:00;;;;;;;4.15;3.25;;;20.70;1.00;;;;;;4840958;29;20050;-44
2023/05/08 05:24:28;;;;;;;6.65;2.80;;;20.70;1.00;;;;;;4840702;29;20041;-43
2023/05/08 05:26:56;;;;;;;6.00;3.92;;;20.60;1.00;;;;;;4839139;29;20046;-45
2023/05/08 05:29:23;;;;;;;4.93;3.22;;;20.60;1.00;;;;;;4840727;29;20465;-45
2023/05/08 05:31:50;;;;;;;4.95;3.20;;;20.60;1.00;;;;;;4840583;29;20061;-45
2023/05/08 05:34:17;;;;;;;4.03;2.75;;;20.60;1.00;;;;;;4840668;29;20106;-44
2023/05/08 05:36:44;;;;;;;4.43;2.85;;;20.70;1.00;;;;;;4840562;29;20056;-43
2023/05/08 05:41:54;;;;;;;2.88;2.42;;;20.70;1.00;;;;;;4813494;29;20055;-44
2023/05/08 05:44:21;;;;;;;4.80;3.03;;;20.70;1.00;;;;;;4800784;29;20046;-44
2023/05/08 05:46:47;;;;;;;4.93;2.65;;;20.70;1.00;;;;;;4803789;29;20123;-44
2023/05/08 05:49:15;;;;;;;5.10;3.03;;;20.70;1.00;;;;;;4796713;29;20127;-43
2023/05/08 05:51:42;;;;;;;6.80;2.72;;;20.60;1.00;;;;;;4805236;29;20053;-43
2023/05/08 05:54:09;;;;;;;4.78;2.75;;;20.70;1.00;;;;;;4803910;29;20683;-44
2023/05/08 05:56:36;;;;;;;5.10;2.72;;;20.70;1.00;;;;;;4788932;29;20084;-43
2023/05/08 05:59:04;;;;;;;2.88;2.58;;;20.70;1.00;;;;;;4800911;29;20057;-44
2023/05/08 06:01:31;;;;;;;4.15;2.67;;;20.70;1.00;;;;;;4803991;29;20070;-45
2023/05/08 06:03:57;;;;;;;2.53;2.03;;;20.70;1.00;;;;;;4803792;29;20054;-43
2023/05/08 06:06:24;;;;;;;3.33;3.03;;;20.70;1.00;;;;;;4803454;29;20050;-43
2023/05/08 06:08:53;;;;;;;4.90;2.15;;;20.70;1.00;;;;;;4803944;29;20138;-44
2023/05/08 06:11:22;;;;;;;3.28;2.20;;;20.70;1.00;;;;;;4866001;23;20068;-44
2023/05/08 06:13:49;;;;;;;2.20;1.85;;;20.70;1.00;;;;;;4839437;29;20064;-44
2023/05/08 06:16:19;;;;;;;3.22;2.05;;;20.80;1.00;;;;;;4832885;29;20054;-45
2023/05/08 06:18:46;;;;;;;3.53;1.90;;;20.80;1.00;;;;;;4839240;29;20046;-44
2023/05/08 06:21:13;;;;;;;2.40;1.70;;;20.80;1.00;;;;;;4838493;29;20044;-45
2023/05/08 06:23:41;;;;;;;2.70;2.28;;;20.80;1.00;;;;;;4841449;29;20034;-43
2023/05/08 06:26:08;;;;;;;3.70;2.35;;;20.80;1.00;;;;;;4840738;29;20053;-43
2023/05/08 06:28:35;;;;;;;4.40;2.15;;;20.80;1.00;;;;;;4826849;29;20049;-43
2023/05/08 06:31:02;;;;;;;5.15;2.55;;;20.80;1.00;;;;;;4840944;29;20415;-43
2023/05/08 06:33:29;;;;;;;2.83;2.17;;;20.80;1.00;;;;;;4840831;29;20102;-44
2023/05/08 06:35:56;;;;;;;2.83;2.15;;;20.80;1.00;;;;;;4840697;29;20050;-43
2023/05/08 06:38:22;;;;;;;2.95;2.38;;;20.80;1.00;;;;;;4840810;29;20125;-44
2023/05/08 06:40:49;;;;;;;3.55;2.78;;;20.80;1.00;;;;;;4912740;23;20044;-44
2023/05/08 06:43:16;;;;;;;3.55;2.30;;;20.80;1.00;;;;;;4805397;29;20043;-44
2023/05/08 06:45:44;;;;;;;3.58;2.72;;;20.80;1.00;;;;;;4814802;29;20411;-46
2023/05/08 06:48:11;;;;;;;3.15;2.53;;;20.80;1.00;;;;;;4819986;29;20440;-43
2023/05/08 06:50:39;;;;;;;3.78;2.72;;;20.80;1.00;;;;;;4819828;29;20099;-43
2023/05/08 06:53:06;;;;;;;5.60;2.72;;;20.80;1.00;;;;;;4814204;29;20047;-45
2023/05/08 06:55:33;;;;;;;3.08;2.70;;;20.80;1.00;;;;;;4814679;29;20042;-43
2023/05/08 06:58:00;;;;;;;4.57;2.92;;;20.80;1.00;;;;;;4822636;29;20050;-47
2023/05/08 07:00:27;;;;;;;3.05;2.70;;;20.80;1.00;;;;;;4817736;29;20064;-44
2023/05/08 07:02:54;;;;;;;3.53;2.95;;;20.80;1.00;;;;;;4825796;29;20078;-44
2023/05/08 07:05:21;;;;;;;2.92;2.30;;;20.80;1.00;;;;;;4825510;29;20042;-44
2023/05/08 07:07:48;;;;;;;4.25;3.22;;;20.80;1.00;;;;;;4825963;29;20054;-44
2023/05/08 07:10:15;;;;;;;5.00;2.88;;;20.80;1.00;;;;;;4825957;29;20399;-44
2023/05/08 07:12:43;;;;;;;3.88;3.13;;;20.80;1.00;;;;;;4815039;29;20063;-46
2023/05/08 07:15:10;;;;;;;4.22;3.30;;;20.80;1.00;;;;;;4825336;29;20503;-44
2023/05/08 07:17:51;;;;;;;4.28;2.92;;;20.80;1.00;;;;;;4814266;29;20142;-44
2023/05/08 07:20:17;;;;;;;3.95;3.08;;;20.80;1.00;;;;;;4821048;29;20045;-45
2023/05/08 07:22:45;;;;;;;3.42;2.88;;;20.80;1.00;;;;;;4825596;29;20050;-44
2023/05/08 07:25:12;;;;;;;3.45;2.83;;;20.80;1.00;;;;;;4825454;29;20466;-44
2023/05/08 07:27:39;;;;;;;3.80;3.35;;;20.90;1.00;;;;;;4825356;29;20046;-45
2023/05/08 07:30:06;;;;;;;5.45;3.13;;;20.80;1.00;;;;;;4824729;29;20065;-45
2023/05/08 07:32:33;;;;;;;3.55;3.00;;;20.90;1.00;;;;;;4810423;29;20121;-45
2023/05/08 07:35:01;;;;;;;6.22;2.85;;;20.80;1.00;;;;;;4825205;29;20046;-44
2023/05/08 07:37:28;;;;;;;3.42;2.80;;;20.90;1.00;;;;;;4825288;29;20046;-44
2023/05/08 07:39:55;;;;;;;3.58;2.53;;;20.90;1.00;;;;;;4825279;29;20110;-44
2023/05/08 07:42:22;;;;;;;3.28;2.85;;;20.90;1.00;;;;;;4818377;29;20053;-45
2023/05/08 07:44:48;;;;;;;2.85;2.38;;;20.90;1.00;;;;;;4816897;29;20061;-45
2023/05/08 07:47:21;;;;;;;4.10;3.35;;;20.90;1.00;;;;;;4822161;29;20043;-44
2023/05/08 07:49:48;;;;;;;3.30;2.92;;;20.90;1.00;;;;;;4825168;29;20046;-44
2023/05/08 07:52:14;;;;;;;3.70;3.30;;;20.90;1.00;;;;;;4823895;29;20129;-44
2023/05/08 07:54:42;;;;;;;4.47;3.72;;;20.90;1.00;;;;;;4825099;29;20043;-44
2023/05/08 07:57:10;;;;;;;5.38;3.05;;;20.90;1.00;;;;;;4824895;29;20057;-44
2023/05/08 07:59:36;;;;;;;4.57;3.53;;;20.90;1.00;;;;;;4820627;29;20434;-45
2023/05/08 08:02:03;;;;;;;5.88;3.40;;;20.90;1.00;;;;;;4824798;29;20054;-45
2023/05/08 08:04:30;;;;;;;4.65;3.65;;;20.90;1.00;;;;;;4824649;29;20152;-44
2023/05/08 08:06:57;;;;;;;4.07;3.40;;;20.90;1.00;;;;;;4811871;29;20569;-45
2023/05/08 08:09:24;;;;;;;4.90;3.72;;;20.90;1.00;;;;;;4823037;29;20051;-44
2023/05/08 08:11:51;;;;;;;4.75;4.03;;;20.90;1.00;;;;;;4824716;29;20051;-45
2023/05/08 08:14:18;;;;;;;5.22;4.25;;;20.90;1.00;;;;;;5021516;23;20055;-44
2023/05/08 08:16:44;;;;;;;6.15;4.90;;;20.90;1.00;;;;;;4821509;29;20050;-43
2023/05/08 08:19:11;;;;;;;4.90;3.70;;;21.00;1.00;;;;;;4822888;29;20120;-47
2023/05/08 08:21:45;;;;;;;8.75;4.47;;;20.90;1.00;;;;;;4821788;29;20047;-45
2023/05/08 08:24:12;;;;;;;6.15;4.05;;;20.90;1.00;;;;;;4821139;29;20054;-44
2023/05/08 08:26:39;;;;;;;5.45;3.97;;;21.00;1.00;;;;;;4824336;29;20072;-45
2023/05/08 08:29:05;;;;;;;6.05;4.45;;;21.00;1.00;;;;;;4824598;29;20039;-43
2023/05/08 08:31:32;;;;;;;5.55;4.65;;;20.90;1.00;;;;;;4820694;29;20575;-45
2023/05/08 08:33:59;;;;;;;7.38;4.13;;;20.90;1.00;;;;;;4824423;29;20035;-43
2023/05/08 08:36:26;;;;;;;5.40;4.57;;;20.90;1.00;;;;;;4824372;29;20092;-44
2023/05/08 08:38:53;;;;;;;6.30;4.40;;;21.00;1.00;;;;;;4824657;29;20045;-44
2023/05/08 08:41:21;;;;;;;6.07;4.05;;;20.90;1.00;;;;;;4824112;29;20042;-44
2023/05/08 08:43:47;;;;;;;5.57;4.53;;;20.90;1.00;;;;;;4815417;29;20046;-44
2023/05/08 08:46:18;;;;;;;6.53;5.22;;;21.00;1.00;;;;;;4818500;29;20117;-44
2023/05/08 08:48:46;;;;;;;8.23;5.28;;;20.90;1.00;;;;;;4822902;29;20525;-44
2023/05/08 08:51:42;;;;;;;6.88;5.18;;;20.90;1.00;;;;;;4824063;29;20099;-43
2023/05/08 08:54:12;;;;;;;6.43;5.38;;;21.00;1.00;;;;;;4809358;29;20135;-44
2023/05/08 08:56:43;;;;;;;5.60;4.80;;;21.00;1.00;;;;;;4816061;29;20046;-43
2023/05/08 08:59:12;;;;;;;5.85;4.80;;;21.00;1.00;;;;;;4824174;29;20129;-44
2023/05/08 09:01:40;;;;;;;5.55;4.60;;;20.90;1.00;;;;;;4820892;29;20098;-44
2023/05/08 09:04:07;;;;;;;5.80;4.93;;;21.00;1.00;;;;;;4823892;29;20046;-44
2023/05/08 09:06:35;;;;;;;7.95;5.88;;;21.00;1.00;;;;;;4824095;29;20208;-44
2023/05/08 09:09:03;;;;;;;6.35;4.13;;;21.00;1.00;;;;;;4824154;29;20076;-45
2023/05/08 09:11:30;;;;;;;5.35;4.45;;;21.00;1.00;;;;;;4823716;29;20095;-45
2023/05/08 09:13:58;;;;;;;5.95;4.80;;;21.00;1.00;;;;;;4818214;29;20042;-44
2023/05/08 09:16:26;;;;;;;5.57;4.32;;;21.00;1.00;;;;;;4805489;29;20112;-44
2023/05/08 09:18:53;;;;;;;9.18;5.18;;;21.00;1.00;;;;;;4818496;29;20492;-44
2023/05/08 09:21:21;;;;;;;10.63;5.65;;;21.00;1.00;;;;;;4823613;29;20088;-43
2023/05/08 09:24:01;;;;;;;6.07;4.78;;;21.00;1.00;;;;;;4817752;29;20113;-44
2023/05/08 09:26:37;;;;;;;7.32;4.78;;;21.00;1.00;;;;;;4814028;29;20091;-43
2023/05/08 09:29:18;;;;;;;6.45;4.95;;;21.00;1.00;;;;;;4823784;29;20038;-43
2023/05/08 09:31:52;;;;;;;5.78;4.35;;;21.00;1.00;;;;;;4802714;29;20042;-45
2023/05/08 09:34:28;;;;;;;6.50;4.05;;;21.00;1.00;;;;;;4821147;29;20089;-43
2023/05/08 09:37:03;;;;;;;6.28;4.28;;;21.00;1.00;;;;;;4817231;29;20050;-44
2023/05/08 09:39:31;;;;;;;4.88;3.85;;;21.00;1.00;;;;;;4823580;29;20070;-45
2023/05/08 09:41:58;;;;;;;5.07;3.95;;;21.00;1.00;;;;;;4823354;29;20046;-44
2023/05/08 09:44:25;;;;;;;3.53;3.05;;;21.00;1.00;;;;;;4823642;29;20051;-43
2023/05/08 09:47:12;;;;;;;4.57;3.63;;;21.00;1.00;;;;;;4823381;29;20411;-43
2023/05/08 09:49:39;;;;;;;4.15;3.28;;;21.00;1.00;;;;;;4817535;29;20046;-43
2023/05/08 09:52:07;;;;;;;5.03;3.72;;;21.00;1.00;;;;;;4823289;29;20077;-44
2023/05/08 09:54:34;;;;;;;3.88;3.30;;;21.00;1.00;;;;;;4823036;29;20133;-45
2023/05/08 09:57:11;;;;;;;4.40;3.33;;;21.00;1.00;;;;;;4823022;29;20500;-46
2023/05/08 09:59:37;;;;;;;3.97;2.88;;;21.00;1.00;;;;;;4823372;29;20055;-43
2023/05/08 10:02:11;;;;;;;4.60;3.22;;;21.00;1.00;;;;;;4823048;29;20140;-43
2023/05/08 10:04:38;;;;;;;4.22;2.97;;;21.00;1.00;;;;;;4823060;29;20534;-44
2023/05/08 10:07:05;;;;;;;4.40;3.28;;;21.00;1.00;;;;;;4822621;29;20122;-44
2023/05/08 10:09:32;;;;;;;4.07;3.13;;;21.00;1.00;;;;;;4823082;29;20046;-43
2023/05/08 10:12:15;;;;;;;3.92;2.88;;;21.00;1.00;;;;;;4822758;29;20175;-43
2023/05/08 10:14:42;;;;;;;3.20;2.60;;;21.00;1.00;;;;;;4923584;23;20038;-44
2023/05/08 10:17:16;;;;;;;4.85;3.22;;;21.00;1.00;;;;;;4809340;29;20057;-44
2023/05/08 10:19:47;;;;;;;3.63;2.60;;;21.00;1.00;;;;;;4819758;29;20043;-43
2023/05/08 10:22:14;;;;;;;3.60;2.80;;;21.00;1.00;;;;;;4822872;29;20042;-44
2023/05/08 10:24:44;;;;;;;5.47;3.20;;;21.00;1.00;;;;;;4821837;29;20050;-43
2023/05/08 10:27:29;;;;;;;5.00;3.25;;;21.00;1.00;;;;;;4822428;29;20098;-43
2023/05/08 10:30:03;;;;;;;3.40;2.60;;;21.00;1.00;;;;;;4822988;29;20039;-43
2023/05/08 10:32:39;;;;;;;4.18;2.55;;;21.10;1.00;;;;;;4818228;29;20440;-43
2023/05/08 10:35:09;;;;;;;4.68;2.88;;;21.00;1.00;;;;;;4818532;29;20039;-44
2023/05/08 10:37:38;;;;;;;4.32;2.92;;;21.10;1.00;;;;;;4817376;29;20492;-43
2023/05/08 10:40:05;;;;;;;5.60;2.65;;;21.00;1.00;;;;;;4826422;29;20042;-44
2023/05/08 10:42:34;;;;;;;4.85;3.08;;;21.10;1.00;;;;;;4826080;29;20151;-44
2023/05/08 10:45:04;;;;;;;4.10;2.30;;;21.10;1.00;;;;;;4814101;29;20115;-44
2023/05/08 10:48:07;;;;;;;5.82;4.13;;;21.10;1.00;;;;;;4813643;29;20050;-44
2023/05/08 10:51:05;;;;;;;5.57;3.33;;;21.10;1.00;;;;;;4825671;29;20122;-45
2023/05/08 10:53:52;;;;;;;5.80;3.22;;;21.10;1.00;;;;;;4826200;29;20043;-47
2023/05/08 10:56:26;;;;;;;5.38;2.63;;;21.10;1.00;;;;;;4818601;29;20192;-45
2023/05/08 10:58:57;;;;;;;4.75;2.80;;;21.10;1.00;;;;;;4825959;29;20053;-43
2023/05/08 11:01:25;;;;;;;6.60;3.30;;;21.10;1.00;;;;;;4825669;29;20046;-43
2023/05/08 11:03:54;;;;;;;4.78;2.75;;;21.10;1.00;;;;;;4823612;29;20126;-43
2023/05/08 11:06:42;;;;;;;4.47;2.63;;;21.10;1.00;;;;;;4825720;29;20591;-43
2023/05/08 11:09:26;;;;;;;5.30;3.33;;;21.10;1.00;;;;;;4825818;29;20046;-43
2023/05/08 11:12:17;;;;;;;8.85;3.72;;;21.10;1.00;;;;;;4825709;29;20042;-43
2023/05/08 11:15:04;;;;;;;5.22;2.78;;;21.10;1.00;;;;;;4825619;29;20053;-43
2023/05/08 11:17:32;;;;;;;6.65;3.92;;;21.10;1.00;;;;;;4812752;29;20051;-43
2023/05/08 11:20:01;;;;;;;7.18;3.63;;;21.10;1.00;;;;;;4820072;29;20396;-43
2023/05/08 11:22:29;;;;;;;5.10;2.70;;;21.10;1.00;;;;;;4822660;29;20042;-45
2023/05/08 11:25:03;;;;;;;5.57;3.30;;;21.10;1.00;;;;;;4823628;29;20410;-44
2023/05/08 11:27:47;;;;;;;7.18;3.55;;;21.10;1.00;;;;;;4825122;29;20050;-44
2023/05/08 11:30:31;;;;;;;6.45;3.22;;;21.10;1.00;;;;;;4825408;29;20131;-44
2023/05/08 11:33:13;;;;;;;7.38;2.90;;;21.10;1.00;;;;;;4823595;29;20338;-44
2023/05/08 11:35:56;;;;;;;7.45;3.40;;;21.10;1.00;;;;;;4823856;29;20099;-44
2023/05/08 11:38:34;;;;;;;7.70;3.40;;;21.10;1.00;;;;;;4825423;29;20121;-43
2023/05/08 11:41:04;;;;;;;6.20;3.10;;;21.10;1.00;;;;;;4825154;29;20057;-43
2023/05/08 11:43:31;;;;;;;6.53;3.95;;;21.10;1.00;;;;;;4825193;29;20042;-42
2023/05/08 11:46:01;;;;;;;7.30;3.33;;;21.10;1.00;;;;;;4824968;29;20613;-42
2023/05/08 11:48:29;;;;;;;9.95;4.55;;;21.10;1.00;;;;;;4813629;29;20122;-44
2023/05/08 11:50:56;;;;;;;14.73;5.93;;;21.10;1.00;;;;;;4821725;29;20053;-42
2023/05/08 11:53:22;;;;;;;16.95;6.03;;;21.10;1.00;;;;;;4821645;29;20543;-42
2023/05/08 11:55:51;;;;;;;17.98;6.93;;;21.10;1.00;;;;;;4818702;29;20042;-43
2023/05/08 11:58:19;;;;;;;20.08;7.47;;;21.10;1.00;;;;;;4825070;29;20153;-43
2023/05/08 12:00:49;;;;;;;15.45;5.80;;;21.10;1.00;;;;;;4824777;29;20050;-42
2023/05/08 12:03:18;;;;;;;15.70;6.93;;;21.10;1.00;;;;;;4825026;29;20051;-43
2023/05/08 12:05:45;;;;;;;15.07;5.47;;;21.00;1.00;;;;;;4823716;29;20118;-43
2023/05/08 12:08:13;;;;;;;11.73;5.70;;;21.10;1.00;;;;;;4824768;29;20038;-44
2023/05/08 12:10:52;;;;;;;15.32;6.18;;;21.00;1.00;;;;;;4825131;29;20053;-44
2023/05/08 12:13:20;;;;;;;11.60;5.35;;;21.00;1.00;;;;;;4824987;29;20043;-43
2023/05/08 12:15:48;;;;;;;11.60;5.72;;;21.00;1.00;;;;;;4824234;29;20491;-43
2023/05/08 12:18:16;;;;;;;11.73;4.97;;;21.00;1.00;;;;;;4814713;29;20047;-43
2023/05/08 12:20:43;;;;;;;14.45;4.72;;;21.00;1.00;;;;;;4819603;29;20507;-43
2023/05/08 12:23:10;;;;;;;12.57;4.90;;;21.10;1.00;;;;;;4821523;29;20045;-43
2023/05/08 12:25:38;;;;;;;9.90;4.60;;;21.10;1.00;;;;;;4809250;29;20141;-46
2023/05/08 12:28:11;;;;;;;9.57;4.25;;;21.10;1.00;;;;;;4824550;29;20053;-43
2023/05/08 12:30:37;;;;;;;;;;;21.10;1.00;;;;;;4825053;29;20050;-43
2023/05/08 12:33:05;;;;;;;9.88;4.03;;;21.10;1.00;;;;;;4824473;29;19925;-44
2023/05/08 12:35:32;;;;;;;7.07;3.28;;;21.10;1.00;;;;;;4819612;29;20406;-44
2023/05/08 12:38:04;;;;;;;9.45;4.35;;;21.10;1.00;;;;;;4824369;29;20106;-44
2023/05/08 12:40:32;;;;;;;10.02;3.92;;;21.10;1.00;;;;;;4824412;29;20129;-44
2023/05/08 12:43:01;;;;;;;7.70;3.90;;;21.10;1.00;;;;;;4824374;29;20534;-46
2023/05/08 12:45:35;;;;;;;12.60;3.72;;;21.10;1.00;;;;;;4823992;29;20043;-44
2023/05/08 12:48:04;;;;;;;10.10;4.28;;;21.10;1.00;;;;;;4985789;23;20028;-44
2023/05/08 12:50:36;;;;;;;9.35;3.90;;;21.10;1.00;;;;;;4810994;29;20491;-44
2023/05/08 12:53:08;;;;;;;9.53;4.03;;;21.10;1.00;;;;;;4823937;29;20034;-44
2023/05/08 12:55:37;;;;;;;6.70;3.38;;;21.10;1.00;;;;;;4805938;29;20050;-44
2023/05/08 12:58:05;;;;;;;7.57;4.13;;;21.10;1.00;;;;;;4799183;29;20130;-44
2023/05/08 13:00:50;;;;;;;8.73;4.22;;;21.10;1.00;;;;;;4805890;29;20043;-44
2023/05/08 13:03:25;;;;;;;7.88;3.83;;;21.10;1.00;;;;;;4805920;29;20070;-45
2023/05/08 13:05:55;;;;;;;7.00;4.05;;;21.20;1.00;;;;;;4803885;29;20042;-44
2023/05/08 13:08:54;;;;;;;7.13;4.22;;;21.10;1.00;;;;;;4805534;29;20053;-45
2023/05/08 13:11:31;;;;;;;7.15;4.07;;;21.10;1.00;;;;;;4805766;29;20043;-43
2023/05/08 13:13:59;;;;;;;6.68;3.58;;;21.10;1.00;;;;;;4805738;29;20070;-45
2023/05/08 13:16:26;;;;;;;6.85;3.53;;;21.10;1.00;;;;;;4805459;29;20116;-43
2023/05/08 13:18:52;;;;;;;5.75;3.33;;;21.20;1.00;;;;;;4805740;29;20046;-43
2023/05/08 13:21:19;;;;;;;7.13;4.10;;;21.20;1.00;;;;;;4805629;29;20503;-44